sensor_id;sensor_type;location;lat;lon;timestamp;pressure;altitude;pressure_sealevel;temperature;humidity
4576;BME280;2300;51.874;8.430;2024-03-02T00:01:27;99501.25;;;5.57;84.86
4576;BME280;2300;51.874;8.430;2024-03-02T00:03:54;99506.31;;;5.53;84.72
4576;BME280;2300;51.874;8.430;2024-03-02T00:06:21;99503.97;;;5.57;85.15
4576;BME280;2300;51.874;8.430;2024-03-02T00:08:47;99508.72;;;5.61;85.14
4576;BME280;2300;51.874;8.430;2024-03-02T00:11:15;99502.91;;;5.58;85.05
4576;BME280;2300;51.874;8.430;2024-03-02T00:13:43;99501.72;;;5.54;85.68
4576;BME280;2300;51.874;8.430;2024-03-02T00:16:18;99502.00;;;5.64;85.66
4576;BME280;2300;51.874;8.430;2024-03-02T00:18:45;99498.22;;;5.65;85.67
4576;BME280;2300;51.874;8.430;2024-03-02T00:21:11;99498.38;;;5.70;85.37
4576;BME280;2300;51.874;8.430;2024-03-02T00:23:40;99490.91;;;5.77;85.56
4576;BME280;2300;51.874;8.430;2024-03-02T00:26:06;99492.66;;;5.71;85.21
4576;BME280;2300;51.874;8.430;2024-03-02T00:28:36;99488.59;;;5.62;85.88
4576;BME280;2300;51.874;8.430;2024-03-02T00:31:04;99478.97;;;5.60;86.20
4576;BME280;2300;51.874;8.430;2024-03-02T00:33:34;99478.53;;;5.63;86.36
4576;BME280;2300;51.874;8.430;2024-03-02T00:36:01;99480.22;;;5.64;86.21
4576;BME280;2300;51.874;8.430;2024-03-02T00:38:29;99465.84;;;5.57;86.53
4576;BME280;2300;51.874;8.430;2024-03-02T00:40:58;99471.28;;;5.57;86.67
4576;BME280;2300;51.874;8.430;2024-03-02T00:43:45;99430.03;;;5.23;86.95
4576;BME280;2300;51.874;8.430;2024-03-02T00:46:12;99476.72;;;5.57;86.93
4576;BME280;2300;51.874;8.430;2024-03-02T00:48:45;99466.16;;;5.49;86.86
4576;BME280;2300;51.874;8.430;2024-03-02T00:51:14;99469.25;;;5.52;87.29
4576;BME280;2300;51.874;8.430;2024-03-02T00:53:40;99443.31;;;5.31;87.21
4576;BME280;2300;51.874;8.430;2024-03-02T00:56:09;99469.63;;;5.56;87.13
4576;BME280;2300;51.874;8.430;2024-03-02T00:58:37;99468.63;;;5.50;87.06
4576;BME280;2300;51.874;8.430;2024-03-02T01:01:05;99461.63;;;5.43;87.18
4576;BME280;2300;51.874;8.430;2024-03-02T01:03:32;99468.97;;;5.42;87.75
4576;BME280;2300;51.874;8.430;2024-03-02T01:05:58;99466.59;;;5.46;87.60
4576;BME280;2300;51.874;8.430;2024-03-02T01:08:25;99462.81;;;5.47;88.16
4576;BME280;2300;51.874;8.430;2024-03-02T01:10:52;99471.59;;;5.49;88.04
4576;BME280;2300;51.874;8.430;2024-03-02T01:13:18;99467.97;;;5.37;88.25
4576;BME280;2300;51.874;8.430;2024-03-02T01:15:45;99464.34;;;5.43;88.37
4576;BME280;2300;51.874;8.430;2024-03-02T01:18:13;99459.75;;;5.43;87.96
4576;BME280;2300;51.874;8.430;2024-03-02T01:20:39;99452.75;;;5.47;87.88
4576;BME280;2300;51.874;8.430;2024-03-02T01:23:06;99461.16;;;5.46;88.06
4576;BME280;2300;51.874;8.430;2024-03-02T01:25:32;99458.69;;;5.44;87.94
4576;BME280;2300;51.874;8.430;2024-03-02T01:27:58;99457.53;;;5.52;88.28
4576;BME280;2300;51.874;8.430;2024-03-02T01:30:25;99452.63;;;5.42;87.74
4576;BME280;2300;51.874;8.430;2024-03-02T01:32:51;99449.44;;;5.45;88.12
4576;BME280;2300;51.874;8.430;2024-03-02T01:35:19;99448.22;;;5.41;88.23
4576;BME280;2300;51.874;8.430;2024-03-02T01:37:46;99451.94;;;5.47;88.50
4576;BME280;2300;51.874;8.430;2024-03-02T01:40:12;99447.69;;;5.51;88.20
4576;BME280;2300;51.874;8.430;2024-03-02T01:42:39;99452.44;;;5.55;88.14
4576;BME280;2300;51.874;8.430;2024-03-02T01:45:06;99455.63;;;5.52;88.21
4576;BME280;2300;51.874;8.430;2024-03-02T01:47:33;99448.53;;;5.51;87.85
4576;BME280;2300;51.874;8.430;2024-03-02T01:50:00;99438.19;;;5.42;88.30
4576;BME280;2300;51.874;8.430;2024-03-02T01:52:28;99442.72;;;5.48;87.99
4576;BME280;2300;51.874;8.430;2024-03-02T01:54:55;99445.88;;;5.45;88.11
4576;BME280;2300;51.874;8.430;2024-03-02T01:57:22;99450.25;;;5.46;88.48
4576;BME280;2300;51.874;8.430;2024-03-02T01:59:49;99445.88;;;5.45;88.46
4576;BME280;2300;51.874;8.430;2024-03-02T02:02:16;99440.69;;;5.43;88.39
4576;BME280;2300;51.874;8.430;2024-03-02T02:04:42;99442.56;;;5.43;88.16
4576;BME280;2300;51.874;8.430;2024-03-02T02:07:09;99431.81;;;5.48;87.83
4576;BME280;2300;51.874;8.430;2024-03-02T02:09:37;99433.63;;;5.36;88.47
4576;BME280;2300;51.874;8.430;2024-03-02T02:12:04;99421.78;;;5.30;88.53
4576;BME280;2300;51.874;8.430;2024-03-02T02:14:32;99417.22;;;5.24;88.84
4576;BME280;2300;51.874;8.430;2024-03-02T02:16:58;99414.66;;;5.29;88.77
4576;BME280;2300;51.874;8.430;2024-03-02T02:19:25;99411.50;;;5.32;88.83
4576;BME280;2300;51.874;8.430;2024-03-02T02:21:53;99408.56;;;5.33;88.70
4576;BME280;2300;51.874;8.430;2024-03-02T02:24:19;99407.88;;;5.38;88.99
4576;BME280;2300;51.874;8.430;2024-03-02T02:26:46;99400.75;;;5.37;88.93
4576;BME280;2300;51.874;8.430;2024-03-02T02:29:12;99392.81;;;5.36;88.35
4576;BME280;2300;51.874;8.430;2024-03-02T02:31:39;99392.94;;;5.41;88.39
4576;BME280;2300;51.874;8.430;2024-03-02T02:34:06;99393.56;;;5.43;88.30
4576;BME280;2300;51.874;8.430;2024-03-02T02:36:32;99384.63;;;5.36;88.40
4576;BME280;2300;51.874;8.430;2024-03-02T02:39:02;99381.91;;;5.36;88.42
4576;BME280;2300;51.874;8.430;2024-03-02T02:41:30;99377.78;;;5.33;88.08
4576;BME280;2300;51.874;8.430;2024-03-02T02:43:56;99376.34;;;5.30;88.69
4576;BME280;2300;51.874;8.430;2024-03-02T02:46:23;99375.06;;;5.33;88.32
4576;BME280;2300;51.874;8.430;2024-03-02T02:48:49;99377.72;;;5.21;88.14
4576;BME280;2300;51.874;8.430;2024-03-02T02:51:16;99379.38;;;5.22;88.47
4576;BME280;2300;51.874;8.430;2024-03-02T02:53:43;99370.97;;;5.24;88.71
4576;BME280;2300;51.874;8.430;2024-03-02T02:56:11;99370.75;;;5.25;88.64
4576;BME280;2300;51.874;8.430;2024-03-02T02:58:37;99373.75;;;5.36;88.73
4576;BME280;2300;51.874;8.430;2024-03-02T03:01:04;99377.66;;;5.40;88.40
4576;BME280;2300;51.874;8.430;2024-03-02T03:03:30;99365.28;;;5.44;87.86
4576;BME280;2300;51.874;8.430;2024-03-02T03:05:57;99369.75;;;5.38;88.56
4576;BME280;2300;51.874;8.430;2024-03-02T03:08:23;99372.84;;;5.42;87.71
4576;BME280;2300;51.874;8.430;2024-03-02T03:10:50;99366.63;;;5.34;88.26
4576;BME280;2300;51.874;8.430;2024-03-02T03:13:18;99365.72;;;5.41;88.02
4576;BME280;2300;51.874;8.430;2024-03-02T03:15:44;99368.44;;;5.41;87.56
4576;BME280;2300;51.874;8.430;2024-03-02T03:18:11;99367.38;;;5.42;87.88
4576;BME280;2300;51.874;8.430;2024-03-02T03:20:37;99363.34;;;5.32;87.63
4576;BME280;2300;51.874;8.430;2024-03-02T03:23:04;99360.84;;;5.31;88.50
4576;BME280;2300;51.874;8.430;2024-03-02T03:25:30;99361.66;;;5.31;88.42
4576;BME280;2300;51.874;8.430;2024-03-02T03:27:57;99370.66;;;5.32;88.23
4576;BME280;2300;51.874;8.430;2024-03-02T03:30:24;99369.84;;;5.31;88.50
4576;BME280;2300;51.874;8.430;2024-03-02T03:32:51;99368.84;;;5.26;88.67
4576;BME280;2300;51.874;8.430;2024-03-02T03:35:17;99361.81;;;5.37;88.86
4576;BME280;2300;51.874;8.430;2024-03-02T03:37:44;99362.63;;;5.37;88.92
4576;BME280;2300;51.874;8.430;2024-03-02T03:40:11;99368.63;;;5.27;88.74
4576;BME280;2300;51.874;8.430;2024-03-02T03:42:39;99375.88;;;5.33;88.96
4576;BME280;2300;51.874;8.430;2024-03-02T03:45:06;99363.19;;;5.27;89.03
4576;BME280;2300;51.874;8.430;2024-03-02T03:47:34;99359.28;;;5.23;89.31
4576;BME280;2300;51.874;8.430;2024-03-02T03:50:01;99359.72;;;5.20;89.22
4576;BME280;2300;51.874;8.430;2024-03-02T03:52:29;99364.25;;;5.26;89.62
4576;BME280;2300;51.874;8.430;2024-03-02T03:54:56;99358.88;;;5.20;89.40
4576;BME280;2300;51.874;8.430;2024-03-02T03:57:22;99374.84;;;5.16;89.64
4576;BME280;2300;51.874;8.430;2024-03-02T03:59:49;99374.31;;;5.26;89.32
4576;BME280;2300;51.874;8.430;2024-03-02T04:02:16;99378.63;;;5.15;89.73
4576;BME280;2300;51.874;8.430;2024-03-02T04:04:43;99370.78;;;5.07;90.11
4576;BME280;2300;51.874;8.430;2024-03-02T04:07:10;99375.47;;;5.00;89.82
4576;BME280;2300;51.874;8.430;2024-03-02T04:09:36;99372.28;;;5.03;90.45
4576;BME280;2300;51.874;8.430;2024-03-02T04:12:03;99368.97;;;5.01;90.48
4576;BME280;2300;51.874;8.430;2024-03-02T04:14:30;99369.56;;;5.03;90.53
4576;BME280;2300;51.874;8.430;2024-03-02T04:16:56;99375.41;;;5.07;90.86
4576;BME280;2300;51.874;8.430;2024-03-02T04:19:23;99373.03;;;5.10;89.72
4576;BME280;2300;51.874;8.430;2024-03-02T04:21:51;99374.03;;;4.98;90.51
4576;BME280;2300;51.874;8.430;2024-03-02T04:24:17;99370.34;;;4.92;90.30
4576;BME280;2300;51.874;8.430;2024-03-02T04:26:43;99378.88;;;4.96;90.04
4576;BME280;2300;51.874;8.430;2024-03-02T04:29:10;99375.16;;;4.90;90.83
4576;BME280;2300;51.874;8.430;2024-03-02T04:31:36;99377.81;;;4.97;91.52
4576;BME280;2300;51.874;8.430;2024-03-02T04:34:03;99376.84;;;4.91;91.45
4576;BME280;2300;51.874;8.430;2024-03-02T04:36:29;99377.66;;;4.92;91.32
4576;BME280;2300;51.874;8.430;2024-03-02T04:38:57;99383.00;;;4.98;91.85
4576;BME280;2300;51.874;8.430;2024-03-02T04:41:24;99380.06;;;5.00;91.85
4576;BME280;2300;51.874;8.430;2024-03-02T04:43:50;99388.75;;;5.08;91.86
4576;BME280;2300;51.874;8.430;2024-03-02T04:46:16;99396.31;;;5.06;91.63
4576;BME280;2300;51.874;8.430;2024-03-02T04:48:43;99405.69;;;5.10;91.68
4576;BME280;2300;51.874;8.430;2024-03-02T04:51:09;99396.69;;;5.10;91.26
4576;BME280;2300;51.874;8.430;2024-03-02T04:53:36;99404.03;;;5.09;90.93
4576;BME280;2300;51.874;8.430;2024-03-02T04:56:05;99402.97;;;5.10;91.56
4576;BME280;2300;51.874;8.430;2024-03-02T04:59:04;99411.28;;;5.15;91.35
4576;BME280;2300;51.874;8.430;2024-03-02T05:01:31;99410.75;;;5.25;91.07
4576;BME280;2300;51.874;8.430;2024-03-02T05:03:58;99368.22;;;4.94;91.01
4576;BME280;2300;51.874;8.430;2024-03-02T05:06:24;99426.69;;;5.21;91.21
4576;BME280;2300;51.874;8.430;2024-03-02T05:08:50;99413.38;;;5.13;91.60
4576;BME280;2300;51.874;8.430;2024-03-02T05:11:18;99418.63;;;5.15;91.56
4576;BME280;2300;51.874;8.430;2024-03-02T05:14:02;99419.88;;;5.30;91.80
4576;BME280;2300;51.874;8.430;2024-03-02T05:16:29;99423.16;;;5.21;91.42
4576;BME280;2300;51.874;8.430;2024-03-02T05:18:56;99429.56;;;5.26;91.55
4576;BME280;2300;51.874;8.430;2024-03-02T05:21:22;99424.88;;;5.15;91.69
4576;BME280;2300;51.874;8.430;2024-03-02T05:23:49;99427.53;;;5.22;91.03
4576;BME280;2300;51.874;8.430;2024-03-02T05:26:15;99426.91;;;5.20;91.28
4576;BME280;2300;51.874;8.430;2024-03-02T05:28:43;99428.38;;;5.22;91.62
4576;BME280;2300;51.874;8.430;2024-03-02T05:31:10;99406.59;;;5.04;91.41
4576;BME280;2300;51.874;8.430;2024-03-02T05:33:37;99420.44;;;5.03;91.69
4576;BME280;2300;51.874;8.430;2024-03-02T05:36:04;99433.53;;;5.12;91.72
4576;BME280;2300;51.874;8.430;2024-03-02T05:38:31;99431.22;;;5.09;91.84
4576;BME280;2300;51.874;8.430;2024-03-02T05:40:57;99435.31;;;5.18;92.01
4576;BME280;2300;51.874;8.430;2024-03-02T05:43:24;99438.81;;;5.07;91.62
4576;BME280;2300;51.874;8.430;2024-03-02T05:45:52;99426.41;;;5.11;91.68
4576;BME280;2300;51.874;8.430;2024-03-02T05:48:18;99426.41;;;5.11;92.08
4576;BME280;2300;51.874;8.430;2024-03-02T05:50:45;99420.50;;;5.14;91.49
4576;BME280;2300;51.874;8.430;2024-03-02T05:53:11;99427.94;;;5.07;91.74
4576;BME280;2300;51.874;8.430;2024-03-02T05:55:38;99421.66;;;5.07;92.20
4576;BME280;2300;51.874;8.430;2024-03-02T05:58:04;99423.97;;;5.03;92.36
4576;BME280;2300;51.874;8.430;2024-03-02T06:00:47;99426.03;;;5.08;92.63
4576;BME280;2300;51.874;8.430;2024-03-02T06:03:15;99428.50;;;5.09;91.96
4576;BME280;2300;51.874;8.430;2024-03-02T06:05:42;99428.59;;;5.03;92.35
4576;BME280;2300;51.874;8.430;2024-03-02T06:08:08;99428.75;;;5.08;92.67
4576;BME280;2300;51.874;8.430;2024-03-02T06:10:34;99433.97;;;5.09;92.26
4576;BME280;2300;51.874;8.430;2024-03-02T06:13:01;99435.16;;;5.13;92.01
4576;BME280;2300;51.874;8.430;2024-03-02T06:15:28;99436.31;;;5.06;91.93
4576;BME280;2300;51.874;8.430;2024-03-02T06:17:54;99437.28;;;5.11;92.47
4576;BME280;2300;51.874;8.430;2024-03-02T06:20:22;99439.31;;;5.16;91.72
4576;BME280;2300;51.874;8.430;2024-03-02T06:22:48;99435.47;;;5.23;91.58
4576;BME280;2300;51.874;8.430;2024-03-02T06:25:15;99445.38;;;5.18;91.54
4576;BME280;2300;51.874;8.430;2024-03-02T06:27:41;99457.31;;;5.17;91.40
4576;BME280;2300;51.874;8.430;2024-03-02T06:30:09;99463.59;;;5.17;91.41
4576;BME280;2300;51.874;8.430;2024-03-02T06:32:36;99461.09;;;5.16;91.27
4576;BME280;2300;51.874;8.430;2024-03-02T06:35:03;99451.34;;;5.08;91.35
4576;BME280;2300;51.874;8.430;2024-03-02T06:37:32;99467.75;;;5.20;91.45
4576;BME280;2300;51.874;8.430;2024-03-02T06:39:58;99469.47;;;5.14;92.39
4576;BME280;2300;51.874;8.430;2024-03-02T06:42:25;99472.06;;;5.09;91.44
4576;BME280;2300;51.874;8.430;2024-03-02T06:44:51;99485.13;;;5.19;92.19
4576;BME280;2300;51.874;8.430;2024-03-02T06:47:18;99476.22;;;5.12;91.91
4576;BME280;2300;51.874;8.430;2024-03-02T06:49:45;99481.56;;;5.18;91.92
4576;BME280;2300;51.874;8.430;2024-03-02T06:52:11;99482.81;;;5.22;91.91
4576;BME280;2300;51.874;8.430;2024-03-02T06:54:39;99483.94;;;5.33;91.68
4576;BME280;2300;51.874;8.430;2024-03-02T06:57:06;99485.38;;;5.36;91.24
4576;BME280;2300;51.874;8.430;2024-03-02T06:59:32;99480.66;;;5.24;91.43
4576;BME280;2300;51.874;8.430;2024-03-02T07:01:59;99482.28;;;5.32;91.35
4576;BME280;2300;51.874;8.430;2024-03-02T07:04:26;99486.41;;;5.34;91.34
4576;BME280;2300;51.874;8.430;2024-03-02T07:06:53;99491.84;;;5.34;91.04
4576;BME280;2300;51.874;8.430;2024-03-02T07:09:20;99488.91;;;5.36;90.88
4576;BME280;2300;51.874;8.430;2024-03-02T07:11:49;99499.88;;;5.29;90.99
4576;BME280;2300;51.874;8.430;2024-03-02T07:14:16;99490.53;;;5.44;90.92
4576;BME280;2300;51.874;8.430;2024-03-02T07:16:42;99489.38;;;5.33;90.81
4576;BME280;2300;51.874;8.430;2024-03-02T07:19:09;99496.03;;;5.37;91.25
4576;BME280;2300;51.874;8.430;2024-03-02T07:21:36;99502.69;;;5.41;90.91
4576;BME280;2300;51.874;8.430;2024-03-02T07:24:02;99497.78;;;5.31;91.38
4576;BME280;2300;51.874;8.430;2024-03-02T07:26:29;99496.41;;;5.41;91.53
4576;BME280;2300;51.874;8.430;2024-03-02T07:28:58;99497.16;;;5.48;91.08
4576;BME280;2300;51.874;8.430;2024-03-02T07:31:25;99503.31;;;5.43;91.02
4576;BME280;2300;51.874;8.430;2024-03-02T07:33:51;99504.72;;;5.46;91.17
4576;BME280;2300;51.874;8.430;2024-03-02T07:36:18;99509.47;;;5.50;91.26
4576;BME280;2300;51.874;8.430;2024-03-02T07:38:44;99511.06;;;5.58;91.24
4576;BME280;2300;51.874;8.430;2024-03-02T07:41:12;99496.00;;;5.55;91.14
4576;BME280;2300;51.874;8.430;2024-03-02T07:43:38;99512.34;;;5.73;90.76
4576;BME280;2300;51.874;8.430;2024-03-02T07:46:06;99510.56;;;5.97;90.39
4576;BME280;2300;51.874;8.430;2024-03-02T07:48:33;99501.22;;;6.05;89.66
4576;BME280;2300;51.874;8.430;2024-03-02T07:50:59;99507.31;;;6.18;88.79
4576;BME280;2300;51.874;8.430;2024-03-02T07:53:27;99499.66;;;6.39;88.61
4576;BME280;2300;51.874;8.430;2024-03-02T07:55:54;99510.13;;;6.42;87.55
4576;BME280;2300;51.874;8.430;2024-03-02T07:58:22;99508.22;;;6.54;87.39
4576;BME280;2300;51.874;8.430;2024-03-02T08:00:48;99501.84;;;6.60;86.89
4576;BME280;2300;51.874;8.430;2024-03-02T08:03:16;99517.53;;;6.76;86.30
4576;BME280;2300;51.874;8.430;2024-03-02T08:05:44;99520.28;;;6.88;85.31
4576;BME280;2300;51.874;8.430;2024-03-02T08:08:11;99529.91;;;7.02;84.74
4576;BME280;2300;51.874;8.430;2024-03-02T08:10:38;99531.47;;;6.98;84.86
4576;BME280;2300;51.874;8.430;2024-03-02T08:13:04;99532.97;;;7.06;84.69
4576;BME280;2300;51.874;8.430;2024-03-02T08:15:31;99537.38;;;7.30;84.20
4576;BME280;2300;51.874;8.430;2024-03-02T08:17:57;99532.72;;;7.42;83.38
4576;BME280;2300;51.874;8.430;2024-03-02T08:20:25;99537.13;;;7.55;82.70
4576;BME280;2300;51.874;8.430;2024-03-02T08:22:52;99532.69;;;7.65;81.87
4576;BME280;2300;51.874;8.430;2024-03-02T08:25:20;99534.09;;;7.79;82.24
4576;BME280;2300;51.874;8.430;2024-03-02T08:27:47;99539.53;;;7.79;81.19
4576;BME280;2300;51.874;8.430;2024-03-02T08:30:14;99532.00;;;7.98;80.62
4576;BME280;2300;51.874;8.430;2024-03-02T08:32:40;99536.69;;;8.14;80.87
4576;BME280;2300;51.874;8.430;2024-03-02T08:35:07;99544.28;;;8.24;79.91
4576;BME280;2300;51.874;8.430;2024-03-02T08:37:37;99534.09;;;8.36;80.44
4576;BME280;2300;51.874;8.430;2024-03-02T08:40:06;99540.91;;;8.50;79.18
4576;BME280;2300;51.874;8.430;2024-03-02T08:42:33;99542.56;;;8.51;79.15
4576;BME280;2300;51.874;8.430;2024-03-02T08:45:00;99534.47;;;8.56;79.20
4576;BME280;2300;51.874;8.430;2024-03-02T08:47:27;99549.72;;;8.52;78.05
4576;BME280;2300;51.874;8.430;2024-03-02T08:49:53;99543.47;;;8.68;78.20
4576;BME280;2300;51.874;8.430;2024-03-02T08:52:20;99549.78;;;8.86;77.66
4576;BME280;2300;51.874;8.430;2024-03-02T08:54:48;99552.09;;;8.94;77.47
4576;BME280;2300;51.874;8.430;2024-03-02T08:57:14;99556.44;;;9.06;77.59
4576;BME280;2300;51.874;8.430;2024-03-02T08:59:41;99533.69;;;9.06;76.34
4576;BME280;2300;51.874;8.430;2024-03-02T09:02:07;99543.75;;;9.39;75.71
4576;BME280;2300;51.874;8.430;2024-03-02T09:04:34;99547.41;;;9.44;75.27
4576;BME280;2300;51.874;8.430;2024-03-02T09:07:00;99546.72;;;9.54;74.15
4576;BME280;2300;51.874;8.430;2024-03-02T09:09:27;99551.13;;;9.77;74.13
4576;BME280;2300;51.874;8.430;2024-03-02T09:11:55;99539.22;;;9.88;73.20
4576;BME280;2300;51.874;8.430;2024-03-02T09:14:23;99539.03;;;9.94;72.21
4576;BME280;2300;51.874;8.430;2024-03-02T09:16:50;99538.34;;;10.26;72.27
4576;BME280;2300;51.874;8.430;2024-03-02T09:19:16;99539.66;;;10.23;71.64
4576;BME280;2300;51.874;8.430;2024-03-02T09:21:44;99538.22;;;10.42;71.41
4576;BME280;2300;51.874;8.430;2024-03-02T09:24:10;99536.25;;;10.65;70.92
4576;BME280;2300;51.874;8.430;2024-03-02T09:26:37;99550.03;;;10.70;70.18
4576;BME280;2300;51.874;8.430;2024-03-02T09:29:05;99548.63;;;10.99;70.27
4576;BME280;2300;51.874;8.430;2024-03-02T09:31:32;99544.44;;;11.23;70.25
4576;BME280;2300;51.874;8.430;2024-03-02T09:33:58;99546.28;;;11.55;70.13
4576;BME280;2300;51.874;8.430;2024-03-02T09:36:25;99545.25;;;11.66;67.74
4576;BME280;2300;51.874;8.430;2024-03-02T09:38:51;99546.38;;;11.65;67.90
4576;BME280;2300;51.874;8.430;2024-03-02T09:41:18;99555.50;;;11.76;68.92
4576;BME280;2300;51.874;8.430;2024-03-02T09:43:45;99544.91;;;11.57;68.40
4576;BME280;2300;51.874;8.430;2024-03-02T09:46:13;99548.34;;;11.75;68.05
4576;BME280;2300;51.874;8.430;2024-03-02T09:48:41;99543.50;;;11.50;68.46
4576;BME280;2300;51.874;8.430;2024-03-02T09:51:08;99544.72;;;11.64;68.05
4576;BME280;2300;51.874;8.430;2024-03-02T09:53:35;99546.81;;;11.57;68.17
4576;BME280;2300;51.874;8.430;2024-03-02T09:56:02;99551.28;;;11.63;67.59
4576;BME280;2300;51.874;8.430;2024-03-02T09:58:30;99554.63;;;11.65;67.13
4576;BME280;2300;51.874;8.430;2024-03-02T10:00:56;99545.53;;;11.64;67.26
4576;BME280;2300;51.874;8.430;2024-03-02T10:03:24;99550.06;;;11.86;67.50
4576;BME280;2300;51.874;8.430;2024-03-02T10:05:51;99550.31;;;11.84;66.99
4576;BME280;2300;51.874;8.430;2024-03-02T10:08:18;99551.47;;;12.03;67.10
4576;BME280;2300;51.874;8.430;2024-03-02T10:10:44;99550.44;;;12.15;67.18
4576;BME280;2300;51.874;8.430;2024-03-02T10:13:12;99559.59;;;12.40;66.38
4576;BME280;2300;51.874;8.430;2024-03-02T10:15:40;99555.50;;;12.48;66.24
4576;BME280;2300;51.874;8.430;2024-03-02T10:18:09;99548.09;;;12.59;65.55
4576;BME280;2300;51.874;8.430;2024-03-02T10:20:38;99552.47;;;12.54;65.53
4576;BME280;2300;51.874;8.430;2024-03-02T10:23:13;99551.34;;;12.45;65.21
4576;BME280;2300;51.874;8.430;2024-03-02T10:25:40;99553.31;;;12.75;65.15
4576;BME280;2300;51.874;8.430;2024-03-02T10:28:07;99547.31;;;12.88;65.40
4576;BME280;2300;51.874;8.430;2024-03-02T10:30:34;99554.75;;;13.03;65.30
4576;BME280;2300;51.874;8.430;2024-03-02T10:33:01;99537.38;;;13.13;64.45
4576;BME280;2300;51.874;8.430;2024-03-02T10:35:28;99538.78;;;13.05;64.27
4576;BME280;2300;51.874;8.430;2024-03-02T10:37:58;99532.44;;;13.00;65.55
4576;BME280;2300;51.874;8.430;2024-03-02T10:40:26;99529.91;;;13.33;65.68
4576;BME280;2300;51.874;8.430;2024-03-02T10:42:53;99534.03;;;13.46;63.99
4576;BME280;2300;51.874;8.430;2024-03-02T10:45:20;99527.44;;;13.42;62.56
4576;BME280;2300;51.874;8.430;2024-03-02T10:47:47;99527.44;;;13.47;62.67
4576;BME280;2300;51.874;8.430;2024-03-02T10:50:14;99516.97;;;13.29;62.96
4576;BME280;2300;51.874;8.430;2024-03-02T10:52:41;99521.63;;;13.38;63.73
4576;BME280;2300;51.874;8.430;2024-03-02T10:55:09;99514.22;;;13.34;63.21
4576;BME280;2300;51.874;8.430;2024-03-02T10:57:41;99512.81;;;13.47;63.30
4576;BME280;2300;51.874;8.430;2024-03-02T11:00:12;99513.63;;;13.57;63.50
4576;BME280;2300;51.874;8.430;2024-03-02T11:02:42;99519.94;;;13.68;63.36
4576;BME280;2300;51.874;8.430;2024-03-02T11:05:18;99513.59;;;13.67;63.51
4576;BME280;2300;51.874;8.430;2024-03-02T11:07:50;99513.94;;;13.41;63.89
4576;BME280;2300;51.874;8.430;2024-03-02T11:10:21;99519.16;;;13.37;64.09
4576;BME280;2300;51.874;8.430;2024-03-02T11:12:53;99503.19;;;13.34;64.51
4576;BME280;2300;51.874;8.430;2024-03-02T11:15:25;99520.22;;;13.61;63.53
4576;BME280;2300;51.874;8.430;2024-03-02T11:17:52;99516.09;;;13.49;63.67
4576;BME280;2300;51.874;8.430;2024-03-02T11:20:20;99519.13;;;13.57;65.17
4576;BME280;2300;51.874;8.430;2024-03-02T11:22:47;99523.41;;;13.94;64.36
4576;BME280;2300;51.874;8.430;2024-03-02T11:25:25;99531.69;;;14.04;62.78
4576;BME280;2300;51.874;8.430;2024-03-02T11:28:03;99520.59;;;14.14;61.47
4576;BME280;2300;51.874;8.430;2024-03-02T11:30:54;99523.38;;;14.14;61.22
4576;BME280;2300;51.874;8.430;2024-03-02T11:33:24;99513.91;;;14.20;61.68
4576;BME280;2300;51.874;8.430;2024-03-02T11:35:52;99519.94;;;14.32;61.45
4576;BME280;2300;51.874;8.430;2024-03-02T11:38:19;99525.16;;;14.39;61.18
4576;BME280;2300;51.874;8.430;2024-03-02T11:40:47;99530.31;;;14.55;61.50
4576;BME280;2300;51.874;8.430;2024-03-02T11:43:13;99522.53;;;14.57;61.53
4576;BME280;2300;51.874;8.430;2024-03-02T11:45:43;99515.22;;;14.77;61.63
4576;BME280;2300;51.874;8.430;2024-03-02T11:48:11;99521.72;;;14.96;59.50
4576;BME280;2300;51.874;8.430;2024-03-02T11:50:40;99520.84;;;15.00;58.67
4576;BME280;2300;51.874;8.430;2024-03-02T11:53:09;99505.53;;;15.08;59.67
4576;BME280;2300;51.874;8.430;2024-03-02T11:55:37;99498.34;;;15.17;57.30
4576;BME280;2300;51.874;8.430;2024-03-02T11:58:06;99495.81;;;15.44;58.72
4576;BME280;2300;51.874;8.430;2024-03-02T12:00:33;99502.22;;;15.69;57.62
4576;BME280;2300;51.874;8.430;2024-03-02T12:03:00;99502.59;;;15.81;57.51
4576;BME280;2300;51.874;8.430;2024-03-02T12:05:27;99506.50;;;15.80;55.65
4576;BME280;2300;51.874;8.430;2024-03-02T12:07:56;99498.13;;;15.61;54.86
4576;BME280;2300;51.874;8.430;2024-03-02T12:10:23;99485.03;;;15.19;54.58
4576;BME280;2300;51.874;8.430;2024-03-02T12:12:55;99491.19;;;15.11;55.09
4576;BME280;2300;51.874;8.430;2024-03-02T12:15:25;99486.94;;;14.90;55.94
4576;BME280;2300;51.874;8.430;2024-03-02T12:17:55;99485.78;;;14.96;56.80
4576;BME280;2300;51.874;8.430;2024-03-02T12:20:22;99480.47;;;14.71;56.48
4576;BME280;2300;51.874;8.430;2024-03-02T12:22:50;99477.53;;;14.91;57.84
4576;BME280;2300;51.874;8.430;2024-03-02T12:25:18;99474.84;;;14.81;57.88
4576;BME280;2300;51.874;8.430;2024-03-02T12:27:46;99479.19;;;14.92;58.63
4576;BME280;2300;51.874;8.430;2024-03-02T12:30:13;99478.25;;;15.01;58.75
4576;BME280;2300;51.874;8.430;2024-03-02T12:32:41;99478.50;;;14.76;58.35
4576;BME280;2300;51.874;8.430;2024-03-02T12:35:10;99479.66;;;14.99;58.85
4576;BME280;2300;51.874;8.430;2024-03-02T12:37:43;99475.53;;;14.96;59.27
4576;BME280;2300;51.874;8.430;2024-03-02T12:40:10;99486.09;;;15.23;59.97
4576;BME280;2300;51.874;8.430;2024-03-02T12:42:37;99478.22;;;15.35;58.90
4576;BME280;2300;51.874;8.430;2024-03-02T12:45:05;99484.56;;;15.12;58.68
4576;BME280;2300;51.874;8.430;2024-03-02T12:47:31;99479.91;;;15.02;59.08
4576;BME280;2300;51.874;8.430;2024-03-02T12:50:00;99473.09;;;15.24;58.84
4576;BME280;2300;51.874;8.430;2024-03-02T12:52:27;99462.50;;;15.02;58.17
4576;BME280;2300;51.874;8.430;2024-03-02T12:54:53;99466.16;;;14.97;58.17
4576;BME280;2300;51.874;8.430;2024-03-02T12:57:25;99464.41;;;14.73;58.92
4576;BME280;2300;51.874;8.430;2024-03-02T12:59:52;99458.41;;;14.94;59.51
4576;BME280;2300;51.874;8.430;2024-03-02T13:02:23;99470.84;;;14.97;58.98
4576;BME280;2300;51.874;8.430;2024-03-02T13:04:52;99463.56;;;15.06;59.30
4576;BME280;2300;51.874;8.430;2024-03-02T13:07:22;99456.72;;;14.98;59.40
4576;BME280;2300;51.874;8.430;2024-03-02T13:09:49;99466.94;;;14.98;59.19
4576;BME280;2300;51.874;8.430;2024-03-02T13:12:16;99458.75;;;14.88;59.36
4576;BME280;2300;51.874;8.430;2024-03-02T13:14:42;99452.69;;;14.86;59.95
4576;BME280;2300;51.874;8.430;2024-03-02T13:17:09;99445.53;;;14.85;60.24
4576;BME280;2300;51.874;8.430;2024-03-02T13:19:36;99454.34;;;14.87;59.46
4576;BME280;2300;51.874;8.430;2024-03-02T13:22:02;99460.41;;;14.89;59.88
4576;BME280;2300;51.874;8.430;2024-03-02T13:24:30;99455.88;;;14.98;59.71
4576;BME280;2300;51.874;8.430;2024-03-02T13:26:58;99444.63;;;14.60;61.11
4576;BME280;2300;51.874;8.430;2024-03-02T13:29:25;99444.69;;;14.55;60.70
4576;BME280;2300;51.874;8.430;2024-03-02T13:31:53;99438.09;;;14.80;60.58